createdAt,value
2018-06-16T00:00:01.421Z,1027.29471186
2018-06-16T00:00:13.856Z,1027.26084798
2018-06-16T00:00:26.280Z,1027.26084798
2018-06-16T00:00:38.743Z,1027.26084798
2018-06-16T00:00:51.178Z,1027.26084798
2018-06-16T00:01:03.924Z,1027.32857574
2018-06-16T00:01:16.348Z,1027.32857574
2018-06-16T00:01:28.746Z,1027.32857574
2018-06-16T00:01:41.158Z,1027.32857574
2018-06-16T00:01:53.564Z,1027.32857574
2018-06-16T00:02:05.960Z,1027.26084798
2018-06-16T00:02:18.417Z,1027.26084798
2018-06-16T00:02:30.954Z,1027.26084798
2018-06-16T00:02:43.359Z,1027.26084798
2018-06-16T00:02:55.753Z,1027.26084798
2018-06-16T00:03:08.161Z,1027.26084798
2018-06-16T00:03:20.591Z,1027.26084798
2018-06-16T00:03:33.008Z,1027.26084798
2018-06-16T00:03:45.403Z,1027.26084798
2018-06-16T00:03:57.788Z,1027.26084798
2018-06-16T00:04:10.208Z,1027.26084798
2018-06-16T00:04:22.612Z,1027.26084798
2018-06-16T00:04:35.020Z,1027.26084798
2018-06-16T00:04:47.423Z,1027.26084798
2018-06-16T00:04:59.842Z,1027.26084798
2018-06-16T00:05:12.256Z,1027.2269841
2018-06-16T00:05:24.664Z,1027.2269841
2018-06-16T00:05:37.061Z,1027.2269841
2018-06-16T00:05:49.454Z,1027.2269841
2018-06-16T00:06:01.863Z,1027.29471186
2018-06-16T00:06:14.255Z,1027.29471186
2018-06-16T00:06:26.676Z,1027.29471186
2018-06-16T00:06:39.216Z,1027.29471186
2018-06-16T00:06:51.640Z,1027.29471186
2018-06-16T00:07:04.636Z,1027.29471186
2018-06-16T00:07:17.063Z,1027.29471186
2018-06-16T00:07:29.495Z,1027.29471186
2018-06-16T00:07:41.955Z,1027.29471186
2018-06-16T00:07:54.367Z,1027.29471186
2018-06-16T00:08:06.777Z,1027.26084798
2018-06-16T00:08:19.168Z,1027.26084798
2018-06-16T00:08:31.564Z,1027.26084798
2018-06-16T00:08:43.972Z,1027.26084798
2018-06-16T00:08:56.371Z,1027.26084798
2018-06-16T00:09:08.771Z,1027.2269841
2018-06-16T00:09:21.200Z,1027.2269841
2018-06-16T00:09:33.602Z,1027.2269841
2018-06-16T00:09:46.010Z,1027.2269841
2018-06-16T00:09:58.433Z,1027.2269841
2018-06-16T00:10:10.835Z,1027.19312021
2018-06-16T00:10:23.230Z,1027.19312021
2018-06-16T00:10:35.637Z,1027.19312021
2018-06-16T00:10:48.040Z,1027.19312021
2018-06-16T00:11:00.451Z,1027.19312021
2018-06-16T00:11:12.843Z,1027.15925633
2018-06-16T00:11:25.251Z,1027.15925633
2018-06-16T00:11:37.691Z,1027.15925633
2018-06-16T00:11:50.099Z,1027.15925633
2018-06-16T00:12:02.501Z,1027.2269841
2018-06-16T00:12:14.904Z,1027.2269841
2018-06-16T00:12:27.306Z,1027.2269841
2018-06-16T00:12:39.847Z,1027.2269841
2018-06-16T00:12:52.233Z,1027.2269841
2018-06-16T00:13:04.617Z,1027.2269841
2018-06-16T00:13:17.034Z,1027.2269841
2018-06-16T00:13:29.433Z,1027.2269841
2018-06-16T00:13:42.034Z,1027.2269841
2018-06-16T00:13:54.618Z,1027.2269841
2018-06-16T00:14:07.038Z,1027.2269841
2018-06-16T00:14:19.426Z,1027.2269841
2018-06-16T00:14:31.827Z,1027.2269841
2018-06-16T00:14:44.273Z,1027.2269841
2018-06-16T00:14:56.671Z,1027.2269841
2018-06-16T00:15:09.080Z,1027.26084798
2018-06-16T00:15:21.489Z,1027.26084798
2018-06-16T00:15:33.884Z,1027.26084798
2018-06-16T00:15:46.341Z,1027.26084798
2018-06-16T00:15:58.733Z,1027.26084798
2018-06-16T00:16:11.116Z,1027.29471186
2018-06-16T00:16:23.565Z,1027.29471186
2018-06-16T00:16:35.952Z,1027.29471186
2018-06-16T00:16:48.379Z,1027.29471186
2018-06-16T00:17:00.777Z,1027.26084798
2018-06-16T00:17:13.182Z,1027.26084798
2018-06-16T00:17:25.575Z,1027.26084798
2018-06-16T00:17:38.066Z,1027.26084798
2018-06-16T00:17:50.470Z,1027.26084798
2018-06-16T00:18:03.007Z,1027.29471186
2018-06-16T00:18:15.409Z,1027.29471186
2018-06-16T00:18:27.829Z,1027.29471186
2018-06-16T00:18:40.220Z,1027.29471186
2018-06-16T00:18:52.645Z,1027.29471186
2018-06-16T00:19:05.186Z,1027.26084798
2018-06-16T00:19:17.749Z,1027.26084798
2018-06-16T00:19:30.168Z,1027.26084798
2018-06-16T00:19:42.556Z,1027.26084798
2018-06-16T00:19:54.952Z,1027.26084798
2018-06-16T00:20:07.374Z,1027.32857574
2018-06-16T00:20:19.777Z,1027.32857574
2018-06-16T00:20:32.179Z,1027.32857574
2018-06-16T00:20:44.582Z,1027.32857574
2018-06-16T00:20:57.039Z,1027.32857574
2018-06-16T00:21:09.466Z,1027.29471186
2018-06-16T00:21:21.876Z,1027.29471186
2018-06-16T00:21:34.291Z,1027.29471186
2018-06-16T00:21:46.708Z,1027.29471186
2018-06-16T00:21:59.129Z,1027.29471186
2018-06-16T00:22:11.528Z,1027.29471186
2018-06-16T00:22:23.917Z,1027.29471186
2018-06-16T00:22:36.341Z,1027.29471186
2018-06-16T00:22:48.825Z,1027.29471186
2018-06-16T00:23:01.380Z,1027.19312021
2018-06-16T00:23:13.783Z,1027.19312021
2018-06-16T00:23:26.212Z,1027.19312021
2018-06-16T00:23:38.630Z,1027.19312021
2018-06-16T00:23:51.101Z,1027.19312021
2018-06-16T00:24:03.561Z,1027.2269841
2018-06-16T00:24:15.970Z,1027.2269841
2018-06-16T00:24:28.355Z,1027.2269841
2018-06-16T00:24:40.742Z,1027.2269841
2018-06-16T00:24:53.159Z,1027.2269841
2018-06-16T00:25:05.570Z,1027.26084798
2018-06-16T00:25:17.984Z,1027.26084798
2018-06-16T00:25:30.373Z,1027.26084798
2018-06-16T00:25:42.776Z,1027.26084798
2018-06-16T00:25:55.199Z,1027.26084798
2018-06-16T00:26:07.574Z,1027.29471186
2018-06-16T00:26:19.979Z,1027.29471186
2018-06-16T00:26:32.395Z,1027.29471186
2018-06-16T00:26:44.804Z,1027.29471186
2018-06-16T00:26:57.198Z,1027.29471186
2018-06-16T00:27:09.616Z,1027.29471186
2018-06-16T00:27:22.036Z,1027.29471186
2018-06-16T00:27:34.432Z,1027.29471186
2018-06-16T00:27:46.831Z,1027.29471186
2018-06-16T00:27:59.226Z,1027.29471186
2018-06-16T00:28:11.618Z,1027.26084798
2018-06-16T00:28:24.096Z,1027.26084798
2018-06-16T00:28:36.572Z,1027.26084798
2018-06-16T00:28:48.977Z,1027.26084798
2018-06-16T00:29:01.382Z,1027.2269841
2018-06-16T00:29:13.771Z,1027.2269841
2018-06-16T00:29:26.160Z,1027.2269841
2018-06-16T00:29:38.535Z,1027.2269841
2018-06-16T00:29:50.982Z,1027.2269841
2018-06-16T00:30:03.375Z,1027.3963035
2018-06-16T00:30:15.799Z,1027.3963035
2018-06-16T00:30:28.205Z,1027.3963035
2018-06-16T00:30:40.640Z,1027.3963035
2018-06-16T00:30:53.098Z,1027.3963035
2018-06-16T00:31:05.511Z,1027.36243962
2018-06-16T00:31:17.963Z,1027.36243962
2018-06-16T00:31:30.361Z,1027.36243962
2018-06-16T00:31:42.742Z,1027.36243962
2018-06-16T00:31:55.145Z,1027.36243962
2018-06-16T00:32:07.611Z,1027.32857574
2018-06-16T00:32:20.017Z,1027.32857574
2018-06-16T00:32:32.454Z,1027.32857574
2018-06-16T00:32:44.866Z,1027.32857574
2018-06-16T00:32:57.260Z,1027.32857574
2018-06-16T00:33:09.717Z,1027.3963035
2018-06-16T00:33:22.111Z,1027.3963035
2018-06-16T00:33:34.494Z,1027.3963035
2018-06-16T00:33:46.880Z,1027.3963035
2018-06-16T00:33:59.274Z,1027.3963035
2018-06-16T00:34:11.685Z,1027.29471186
2018-06-16T00:34:24.084Z,1027.29471186
2018-06-16T00:34:36.494Z,1027.29471186
2018-06-16T00:34:48.894Z,1027.29471186
2018-06-16T00:35:01.312Z,1027.3963035
2018-06-16T00:35:13.705Z,1027.3963035
2018-06-16T00:35:26.121Z,1027.3963035
2018-06-16T00:35:38.544Z,1027.3963035
2018-06-16T00:35:50.954Z,1027.3963035
2018-06-16T00:36:03.359Z,1027.29471186
2018-06-16T00:36:15.766Z,1027.29471186
2018-06-16T00:36:28.177Z,1027.29471186
2018-06-16T00:36:40.578Z,1027.29471186
2018-06-16T00:36:53.032Z,1027.29471186
2018-06-16T00:37:05.457Z,1027.3963035
2018-06-16T00:37:17.854Z,1027.3963035
2018-06-16T00:37:30.257Z,1027.3963035
2018-06-16T00:37:42.655Z,1027.3963035
2018-06-16T00:37:55.061Z,1027.3963035
2018-06-16T00:38:07.480Z,1027.36243962
2018-06-16T00:38:19.926Z,1027.36243962
2018-06-16T00:38:32.341Z,1027.36243962
2018-06-16T00:38:44.797Z,1027.36243962
2018-06-16T00:38:57.197Z,1027.36243962
2018-06-16T00:39:09.604Z,1027.3963035
2018-06-16T00:39:21.994Z,1027.3963035
2018-06-16T00:39:34.438Z,1027.3963035
2018-06-16T00:39:46.853Z,1027.3963035
2018-06-16T00:39:59.281Z,1027.3963035
2018-06-16T00:40:11.701Z,1027.29471186
2018-06-16T00:40:24.091Z,1027.29471186
2018-06-16T00:40:36.504Z,1027.29471186
2018-06-16T00:40:48.885Z,1027.29471186
2018-06-16T00:41:01.299Z,1027.36243962
2018-06-16T00:41:13.809Z,1027.36243962
2018-06-16T00:41:27.024Z,1027.36243962
2018-06-16T00:41:39.419Z,1027.36243962
2018-06-16T00:41:51.821Z,1027.36243962
2018-06-16T00:42:04.220Z,1027.36243962
2018-06-16T00:42:16.612Z,1027.36243962
2018-06-16T00:42:29.003Z,1027.36243962
2018-06-16T00:42:41.403Z,1027.36243962
2018-06-16T00:42:53.796Z,1027.36243962
2018-06-16T00:43:06.212Z,1027.3963035
2018-06-16T00:43:18.637Z,1027.3963035
2018-06-16T00:43:31.047Z,1027.3963035
2018-06-16T00:43:43.446Z,1027.3963035
2018-06-16T00:43:55.884Z,1027.3963035
2018-06-16T00:44:08.277Z,1027.3963035
2018-06-16T00:44:20.692Z,1027.3963035
2018-06-16T00:44:33.078Z,1027.3963035
2018-06-16T00:44:45.472Z,1027.3963035
2018-06-16T00:44:57.869Z,1027.3963035
2018-06-16T00:45:10.292Z,1027.43016738
2018-06-16T00:45:22.716Z,1027.43016738
2018-06-16T00:45:35.105Z,1027.43016738
2018-06-16T00:45:47.510Z,1027.43016738
2018-06-16T00:46:00.082Z,1027.43016738
2018-06-16T00:46:12.500Z,1027.46403127
2018-06-16T00:46:24.904Z,1027.46403127
2018-06-16T00:46:37.334Z,1027.46403127
2018-06-16T00:46:49.756Z,1027.46403127
2018-06-16T00:47:02.156Z,1027.36243962
2018-06-16T00:47:14.557Z,1027.36243962
2018-06-16T00:47:26.964Z,1027.36243962
2018-06-16T00:47:39.350Z,1027.36243962
2018-06-16T00:47:51.737Z,1027.36243962
2018-06-16T00:48:04.135Z,1027.3963035
2018-06-16T00:48:16.532Z,1027.3963035
2018-06-16T00:48:28.958Z,1027.3963035
2018-06-16T00:48:41.441Z,1027.3963035
2018-06-16T00:48:53.848Z,1027.3963035
2018-06-16T00:49:06.278Z,1027.46403127
2018-06-16T00:49:18.677Z,1027.46403127
2018-06-16T00:49:31.090Z,1027.46403127
2018-06-16T00:49:43.526Z,1027.46403127
2018-06-16T00:49:55.917Z,1027.46403127
2018-06-16T00:50:08.321Z,1027.46403127
2018-06-16T00:50:20.755Z,1027.46403127
2018-06-16T00:50:33.148Z,1027.46403127
2018-06-16T00:50:45.565Z,1027.46403127
2018-06-16T00:50:58.167Z,1027.46403127
2018-06-16T00:51:10.566Z,1027.29471186
2018-06-16T00:51:22.962Z,1027.29471186
2018-06-16T00:51:35.349Z,1027.29471186
2018-06-16T00:51:47.734Z,1027.29471186
2018-06-16T00:52:00.146Z,1027.29471186
2018-06-16T00:52:12.546Z,1027.3963035
2018-06-16T00:52:24.945Z,1027.3963035
2018-06-16T00:52:37.335Z,1027.3963035
2018-06-16T00:52:49.810Z,1027.3963035
2018-06-16T00:53:02.917Z,1027.43016738
2018-06-16T00:53:15.323Z,1027.43016738
2018-06-16T00:53:27.730Z,1027.43016738
2018-06-16T00:53:40.140Z,1027.43016738
2018-06-16T00:53:52.524Z,1027.43016738
2018-06-16T00:54:04.933Z,1027.29471186
2018-06-16T00:54:17.334Z,1027.29471186
2018-06-16T00:54:29.733Z,1027.29471186
2018-06-16T00:54:42.126Z,1027.29471186
2018-06-16T00:54:54.533Z,1027.29471186
2018-06-16T00:55:06.945Z,1027.3963035
2018-06-16T00:55:19.338Z,1027.3963035
2018-06-16T00:55:31.736Z,1027.3963035
2018-06-16T00:55:44.162Z,1027.3963035
2018-06-16T00:55:56.830Z,1027.3963035
2018-06-16T00:56:09.261Z,1027.3963035
2018-06-16T00:56:21.655Z,1027.3963035
2018-06-16T00:56:34.063Z,1027.3963035
2018-06-16T00:56:46.465Z,1027.3963035
2018-06-16T00:56:58.863Z,1027.3963035
2018-06-16T00:57:11.272Z,1027.43016738
2018-06-16T00:57:23.692Z,1027.43016738
2018-06-16T00:57:36.069Z,1027.43016738
2018-06-16T00:57:48.491Z,1027.43016738
2018-06-16T00:58:00.935Z,1027.46403127
2018-06-16T00:58:13.365Z,1027.46403127
2018-06-16T00:58:25.759Z,1027.46403127
2018-06-16T00:58:38.144Z,1027.46403127
2018-06-16T00:58:50.534Z,1027.46403127
2018-06-16T00:59:02.969Z,1027.43016738
2018-06-16T00:59:15.359Z,1027.43016738
2018-06-16T00:59:27.758Z,1027.43016738
2018-06-16T00:59:40.149Z,1027.43016738
2018-06-16T00:59:52.553Z,1027.43016738
2018-06-16T01:00:04.966Z,1027.3963035
2018-06-16T01:00:17.533Z,1027.3963035
2018-06-16T01:00:29.978Z,1027.3963035
2018-06-16T01:00:42.423Z,1027.3963035
2018-06-16T01:00:54.847Z,1027.3963035
2018-06-16T01:01:07.419Z,1027.3963035
2018-06-16T01:01:19.882Z,1027.3963035
2018-06-16T01:01:32.328Z,1027.3963035
2018-06-16T01:01:44.751Z,1027.3963035
2018-06-16T01:01:57.169Z,1027.3963035
2018-06-16T01:02:09.570Z,1027.3963035
2018-06-16T01:02:21.972Z,1027.3963035
2018-06-16T01:02:34.425Z,1027.3963035
2018-06-16T01:02:46.824Z,1027.3963035
2018-06-16T01:02:59.230Z,1027.3963035
2018-06-16T01:03:11.634Z,1027.3963035
2018-06-16T01:03:24.052Z,1027.3963035
2018-06-16T01:03:36.460Z,1027.3963035
2018-06-16T01:03:48.863Z,1027.3963035
2018-06-16T01:04:01.249Z,1027.46403127
2018-06-16T01:04:13.668Z,1027.46403127
2018-06-16T01:04:26.091Z,1027.46403127
2018-06-16T01:04:38.562Z,1027.46403127
2018-06-16T01:04:50.958Z,1027.46403127
2018-06-16T01:05:03.375Z,1027.3963035
2018-06-16T01:05:15.768Z,1027.3963035
2018-06-16T01:05:28.158Z,1027.3963035
2018-06-16T01:05:40.542Z,1027.3963035
2018-06-16T01:05:52.959Z,1027.3963035
2018-06-16T01:06:05.411Z,1027.46403127
2018-06-16T01:06:17.834Z,1027.46403127
2018-06-16T01:06:30.244Z,1027.46403127
2018-06-16T01:06:42.633Z,1027.46403127
2018-06-16T01:06:55.015Z,1027.46403127
2018-06-16T01:07:07.403Z,1027.46403127
2018-06-16T01:07:19.801Z,1027.46403127
2018-06-16T01:07:32.213Z,1027.46403127
2018-06-16T01:07:44.616Z,1027.46403127
2018-06-16T01:07:57.012Z,1027.46403127
2018-06-16T01:08:09.417Z,1027.49789515
2018-06-16T01:08:21.815Z,1027.49789515
2018-06-16T01:08:34.213Z,1027.49789515
2018-06-16T01:08:46.622Z,1027.49789515
2018-06-16T01:08:59.008Z,1027.49789515
2018-06-16T01:09:11.409Z,1027.3963035
2018-06-16T01:09:23.803Z,1027.3963035
2018-06-16T01:09:36.190Z,1027.3963035
2018-06-16T01:09:48.598Z,1027.3963035
2018-06-16T01:10:00.980Z,1027.46403127
2018-06-16T01:10:13.364Z,1027.46403127
2018-06-16T01:10:25.767Z,1027.46403127
2018-06-16T01:10:38.175Z,1027.46403127
2018-06-16T01:10:50.560Z,1027.46403127
2018-06-16T01:11:03.043Z,1027.49789515
2018-06-16T01:11:15.458Z,1027.49789515
2018-06-16T01:11:27.861Z,1027.49789515
2018-06-16T01:11:40.266Z,1027.49789515
2018-06-16T01:11:52.670Z,1027.49789515
2018-06-16T01:12:05.297Z,1027.49789515
2018-06-16T01:12:17.701Z,1027.49789515
2018-06-16T01:12:30.098Z,1027.49789515
2018-06-16T01:12:42.525Z,1027.49789515
2018-06-16T01:12:54.918Z,1027.49789515
2018-06-16T01:13:07.313Z,1027.49789515
2018-06-16T01:13:19.705Z,1027.49789515
2018-06-16T01:13:32.127Z,1027.49789515
2018-06-16T01:13:44.549Z,1027.49789515
2018-06-16T01:13:57.013Z,1027.49789515
2018-06-16T01:14:09.390Z,1027.36243962
2018-06-16T01:14:21.811Z,1027.36243962
2018-06-16T01:14:34.228Z,1027.36243962
2018-06-16T01:14:46.675Z,1027.36243962
2018-06-16T01:14:59.085Z,1027.36243962
2018-06-16T01:15:11.502Z,1027.43016738
2018-06-16T01:15:23.903Z,1027.43016738
2018-06-16T01:15:36.356Z,1027.43016738
2018-06-16T01:15:48.759Z,1027.43016738
2018-06-16T01:16:01.160Z,1027.43016738
2018-06-16T01:16:13.761Z,1027.43016738
2018-06-16T01:16:26.829Z,1027.43016738
2018-06-16T01:16:39.241Z,1027.43016738
2018-06-16T01:16:51.638Z,1027.43016738
2018-06-16T01:17:04.118Z,1027.46403127
2018-06-16T01:17:16.504Z,1027.46403127
2018-06-16T01:17:28.925Z,1027.46403127
2018-06-16T01:17:41.365Z,1027.46403127
2018-06-16T01:17:53.774Z,1027.46403127
2018-06-16T01:18:06.327Z,1027.43016738
2018-06-16T01:18:18.727Z,1027.43016738
2018-06-16T01:18:31.144Z,1027.43016738
2018-06-16T01:18:43.545Z,1027.43016738
2018-06-16T01:18:55.949Z,1027.43016738
2018-06-16T01:19:08.490Z,1027.43016738
2018-06-16T01:19:20.922Z,1027.43016738
2018-06-16T01:19:33.346Z,1027.43016738
2018-06-16T01:19:45.729Z,1027.43016738
2018-06-16T01:19:58.429Z,1027.43016738
2018-06-16T01:20:10.832Z,1027.43016738
2018-06-16T01:20:23.210Z,1027.43016738
2018-06-16T01:20:35.602Z,1027.43016738
2018-06-16T01:20:48.009Z,1027.43016738
2018-06-16T01:21:00.404Z,1027.43016738
2018-06-16T01:21:12.806Z,1027.36243962
2018-06-16T01:21:25.212Z,1027.36243962
2018-06-16T01:21:37.619Z,1027.36243962
2018-06-16T01:21:50.009Z,1027.36243962
2018-06-16T01:22:02.419Z,1027.43016738
2018-06-16T01:22:14.800Z,1027.43016738
2018-06-16T01:22:27.192Z,1027.43016738
2018-06-16T01:22:39.577Z,1027.43016738
2018-06-16T01:22:51.986Z,1027.43016738
2018-06-16T01:23:04.397Z,1027.3963035
2018-06-16T01:23:16.791Z,1027.3963035
2018-06-16T01:23:29.217Z,1027.3963035
2018-06-16T01:23:41.607Z,1027.3963035
2018-06-16T01:23:54.163Z,1027.3963035
2018-06-16T01:24:06.758Z,1027.46403127
2018-06-16T01:24:19.151Z,1027.46403127
2018-06-16T01:24:31.563Z,1027.46403127
2018-06-16T01:24:43.947Z,1027.46403127
2018-06-16T01:24:56.354Z,1027.46403127
2018-06-16T01:25:08.757Z,1027.3963035
2018-06-16T01:25:21.167Z,1027.3963035
2018-06-16T01:25:33.570Z,1027.3963035
2018-06-16T01:25:45.967Z,1027.3963035
2018-06-16T01:25:58.371Z,1027.3963035
2018-06-16T01:26:10.821Z,1027.3963035
2018-06-16T01:26:23.262Z,1027.3963035
2018-06-16T01:26:35.662Z,1027.3963035
2018-06-16T01:26:48.067Z,1027.3963035
2018-06-16T01:27:00.469Z,1027.3963035
2018-06-16T01:27:12.858Z,1027.49789515
2018-06-16T01:27:25.269Z,1027.49789515
2018-06-16T01:27:37.667Z,1027.49789515
2018-06-16T01:27:50.065Z,1027.49789515
2018-06-16T01:28:02.450Z,1027.43016738
2018-06-16T01:28:14.922Z,1027.43016738
2018-06-16T01:28:27.335Z,1027.43016738
2018-06-16T01:28:39.726Z,1027.43016738
2018-06-16T01:28:52.145Z,1027.43016738
2018-06-16T01:29:04.554Z,1027.36243962
2018-06-16T01:29:16.926Z,1027.36243962
2018-06-16T01:29:29.308Z,1027.36243962
2018-06-16T01:29:41.707Z,1027.36243962
2018-06-16T01:29:54.093Z,1027.36243962
2018-06-16T01:30:06.493Z,1027.3963035
2018-06-16T01:30:18.895Z,1027.3963035
2018-06-16T01:30:31.311Z,1027.3963035
2018-06-16T01:30:43.725Z,1027.3963035
2018-06-16T01:30:56.109Z,1027.3963035
2018-06-16T01:31:08.550Z,1027.36243962
2018-06-16T01:31:20.995Z,1027.36243962
2018-06-16T01:31:33.399Z,1027.36243962
2018-06-16T01:31:45.796Z,1027.36243962
2018-06-16T01:31:58.247Z,1027.36243962
2018-06-16T01:32:10.637Z,1027.36243962
2018-06-16T01:32:23.014Z,1027.36243962
2018-06-16T01:32:35.436Z,1027.36243962
2018-06-16T01:32:47.846Z,1027.36243962
2018-06-16T01:33:00.243Z,1027.36243962
2018-06-16T01:33:12.671Z,1027.43016738
2018-06-16T01:33:25.072Z,1027.43016738
2018-06-16T01:33:37.481Z,1027.43016738
2018-06-16T01:33:49.874Z,1027.43016738
2018-06-16T01:34:02.249Z,1027.36243962
2018-06-16T01:34:14.641Z,1027.36243962
2018-06-16T01:34:27.026Z,1027.36243962
2018-06-16T01:34:39.411Z,1027.36243962
2018-06-16T01:34:51.799Z,1027.36243962
2018-06-16T01:35:04.189Z,1027.32857574
2018-06-16T01:35:16.599Z,1027.32857574
2018-06-16T01:35:29.011Z,1027.32857574
2018-06-16T01:35:41.405Z,1027.32857574
2018-06-16T01:35:53.802Z,1027.32857574
2018-06-16T01:36:06.234Z,1027.32857574
2018-06-16T01:36:18.752Z,1027.32857574
2018-06-16T01:36:31.168Z,1027.32857574
2018-06-16T01:36:43.561Z,1027.32857574
2018-06-16T01:36:55.943Z,1027.32857574
2018-06-16T01:37:08.330Z,1027.36243962
2018-06-16T01:37:20.774Z,1027.36243962
2018-06-16T01:37:33.185Z,1027.36243962
2018-06-16T01:37:45.581Z,1027.36243962
2018-06-16T01:37:57.981Z,1027.36243962
2018-06-16T01:38:10.399Z,1027.32857574
2018-06-16T01:38:22.880Z,1027.32857574
2018-06-16T01:38:35.301Z,1027.32857574
2018-06-16T01:38:47.711Z,1027.32857574
2018-06-16T01:39:00.121Z,1027.32857574
2018-06-16T01:39:12.537Z,1027.3963035
2018-06-16T01:39:25.084Z,1027.3963035
2018-06-16T01:39:37.513Z,1027.3963035
2018-06-16T01:39:49.965Z,1027.3963035
2018-06-16T01:40:02.398Z,1027.3963035
2018-06-16T01:40:14.812Z,1027.3963035
2018-06-16T01:40:27.209Z,1027.3963035
2018-06-16T01:40:39.589Z,1027.3963035
2018-06-16T01:40:51.978Z,1027.3963035
2018-06-16T01:41:04.361Z,1027.36243962
2018-06-16T01:41:16.817Z,1027.36243962
2018-06-16T01:41:29.243Z,1027.36243962
2018-06-16T01:41:41.638Z,1027.36243962
2018-06-16T01:41:54.055Z,1027.36243962
2018-06-16T01:42:06.464Z,1027.3963035
2018-06-16T01:42:18.899Z,1027.3963035
2018-06-16T01:42:31.308Z,1027.3963035
2018-06-16T01:42:43.731Z,1027.3963035
2018-06-16T01:42:56.162Z,1027.3963035
2018-06-16T01:43:08.586Z,1027.26084798
2018-06-16T01:43:20.989Z,1027.26084798
2018-06-16T01:43:33.399Z,1027.26084798
2018-06-16T01:43:45.799Z,1027.26084798
2018-06-16T01:43:58.196Z,1027.26084798
2018-06-16T01:44:10.593Z,1027.29471186
2018-06-16T01:44:22.984Z,1027.29471186
2018-06-16T01:44:35.400Z,1027.29471186
2018-06-16T01:44:47.801Z,1027.29471186
2018-06-16T01:45:00.229Z,1027.29471186
2018-06-16T01:45:12.624Z,1027.32857574
2018-06-16T01:45:25.062Z,1027.32857574
2018-06-16T01:45:37.503Z,1027.32857574
2018-06-16T01:45:49.906Z,1027.32857574
2018-06-16T01:46:02.460Z,1027.32857574
2018-06-16T01:46:14.864Z,1027.32857574
2018-06-16T01:46:27.268Z,1027.32857574
2018-06-16T01:46:39.659Z,1027.32857574
2018-06-16T01:46:52.187Z,1027.32857574
2018-06-16T01:47:04.605Z,1027.3963035
2018-06-16T01:47:17.034Z,1027.3963035
2018-06-16T01:47:29.483Z,1027.3963035
2018-06-16T01:47:41.882Z,1027.3963035
2018-06-16T01:47:54.291Z,1027.3963035
2018-06-16T01:48:06.689Z,1027.2269841
2018-06-16T01:48:19.090Z,1027.2269841
2018-06-16T01:48:31.654Z,1027.2269841
2018-06-16T01:48:44.050Z,1027.2269841
2018-06-16T01:48:56.458Z,1027.2269841
2018-06-16T01:49:08.877Z,1027.3963035
2018-06-16T01:49:21.272Z,1027.3963035
2018-06-16T01:49:33.676Z,1027.3963035
2018-06-16T01:49:46.077Z,1027.3963035
2018-06-16T01:49:58.627Z,1027.3963035
2018-06-16T01:50:11.027Z,1027.29471186
2018-06-16T01:50:23.430Z,1027.29471186
2018-06-16T01:50:35.860Z,1027.29471186
2018-06-16T01:50:48.310Z,1027.29471186
2018-06-16T01:51:00.919Z,1027.36243962
2018-06-16T01:51:13.347Z,1027.36243962
2018-06-16T01:51:25.799Z,1027.36243962
2018-06-16T01:51:38.211Z,1027.36243962
2018-06-16T01:51:50.624Z,1027.36243962
2018-06-16T01:52:03.017Z,1027.29471186
2018-06-16T01:52:15.416Z,1027.29471186
2018-06-16T01:52:27.819Z,1027.29471186
2018-06-16T01:52:40.230Z,1027.29471186
2018-06-16T01:52:52.651Z,1027.29471186
2018-06-16T01:53:05.072Z,1027.32857574
2018-06-16T01:53:17.462Z,1027.32857574
2018-06-16T01:53:29.853Z,1027.32857574
2018-06-16T01:53:42.263Z,1027.32857574
2018-06-16T01:53:54.669Z,1027.32857574
2018-06-16T01:54:07.094Z,1027.3963035
2018-06-16T01:54:19.501Z,1027.3963035
2018-06-16T01:54:31.913Z,1027.3963035
2018-06-16T01:54:44.324Z,1027.3963035
2018-06-16T01:54:56.726Z,1027.3963035
2018-06-16T01:55:09.137Z,1027.32857574
2018-06-16T01:55:21.536Z,1027.32857574
2018-06-16T01:55:33.959Z,1027.32857574
2018-06-16T01:55:46.383Z,1027.32857574
2018-06-16T01:55:58.824Z,1027.32857574
2018-06-16T01:56:11.245Z,1027.36243962
2018-06-16T01:56:23.636Z,1027.36243962
2018-06-16T01:56:36.014Z,1027.36243962
2018-06-16T01:56:48.425Z,1027.36243962
2018-06-16T01:57:00.837Z,1027.3963035
2018-06-16T01:57:13.264Z,1027.3963035
2018-06-16T01:57:25.681Z,1027.3963035
2018-06-16T01:57:38.112Z,1027.3963035
2018-06-16T01:57:50.643Z,1027.3963035
2018-06-16T01:58:03.047Z,1027.36243962
2018-06-16T01:58:15.436Z,1027.36243962
2018-06-16T01:58:27.822Z,1027.36243962
2018-06-16T01:58:40.241Z,1027.36243962
2018-06-16T01:58:52.643Z,1027.36243962
2018-06-16T01:59:05.038Z,1027.36243962
2018-06-16T01:59:17.420Z,1027.36243962
2018-06-16T01:59:29.821Z,1027.36243962
2018-06-16T01:59:42.230Z,1027.36243962
2018-06-16T01:59:54.610Z,1027.36243962
2018-06-16T02:00:07.017Z,1027.36243962
2018-06-16T02:00:19.535Z,1027.36243962
2018-06-16T02:00:31.947Z,1027.36243962
2018-06-16T02:00:44.369Z,1027.36243962
2018-06-16T02:00:56.884Z,1027.36243962
2018-06-16T02:01:09.312Z,1027.36243962
2018-06-16T02:01:21.722Z,1027.36243962
2018-06-16T02:01:34.149Z,1027.36243962
2018-06-16T02:01:46.565Z,1027.36243962
2018-06-16T02:01:58.978Z,1027.36243962
2018-06-16T02:02:11.392Z,1027.29471186
2018-06-16T02:02:23.794Z,1027.29471186
2018-06-16T02:02:36.294Z,1027.29471186
2018-06-16T02:02:48.706Z,1027.29471186
2018-06-16T02:03:01.109Z,1027.29471186
2018-06-16T02:03:13.536Z,1027.29471186
2018-06-16T02:03:25.932Z,1027.29471186
2018-06-16T02:03:38.321Z,1027.29471186
2018-06-16T02:03:50.717Z,1027.29471186
2018-06-16T02:04:03.112Z,1027.36243962
2018-06-16T02:04:15.515Z,1027.36243962
2018-06-16T02:04:27.915Z,1027.36243962
2018-06-16T02:04:40.360Z,1027.36243962
2018-06-16T02:04:52.790Z,1027.36243962
2018-06-16T02:05:05.266Z,1027.36243962
2018-06-16T02:05:17.806Z,1027.36243962
2018-06-16T02:05:30.216Z,1027.36243962
2018-06-16T02:05:42.609Z,1027.36243962
2018-06-16T02:05:55.050Z,1027.36243962
2018-06-16T02:06:07.440Z,1027.32857574
2018-06-16T02:06:19.830Z,1027.32857574
2018-06-16T02:06:32.240Z,1027.32857574
2018-06-16T02:06:44.627Z,1027.32857574
2018-06-16T02:06:57.031Z,1027.32857574
2018-06-16T02:07:09.439Z,1027.29471186
2018-06-16T02:07:21.839Z,1027.29471186
2018-06-16T02:07:34.244Z,1027.29471186
2018-06-16T02:07:46.640Z,1027.29471186
2018-06-16T02:07:59.042Z,1027.29471186